createdAt,value
2022-09-09T00:02:24.679Z,15.27
2022-09-09T00:05:00.917Z,15.25
2022-09-09T00:07:44.298Z,15.30
2022-09-09T00:10:16.901Z,15.35
2022-09-09T00:12:58.421Z,15.35
2022-09-09T00:15:34.523Z,15.42
2022-09-09T00:18:16.427Z,15.35
2022-09-09T00:20:56.759Z,15.40
2022-09-09T00:23:31.053Z,15.48
2022-09-09T00:26:03.393Z,15.45
2022-09-09T00:28:33.201Z,15.42
2022-09-09T00:31:13.844Z,15.31
2022-09-09T00:33:42.104Z,15.33
2022-09-09T00:36:16.654Z,15.20
2022-09-09T00:38:50.171Z,15.14
2022-09-09T00:41:27.884Z,15.14
2022-09-09T00:44:12.066Z,15.11
2022-09-09T00:47:08.399Z,15.14
2022-09-09T00:50:10.140Z,15.12
2022-09-09T00:52:58.569Z,15.05
2022-09-09T00:55:51.348Z,15.15
2022-09-09T00:58:17.948Z,15.18
2022-09-09T01:00:53.951Z,15.21
2022-09-09T01:03:33.986Z,15.29
2022-09-09T01:06:14.189Z,15.27
2022-09-09T01:09:12.748Z,15.20
2022-09-09T01:12:00.574Z,15.11
2022-09-09T01:14:37.011Z,15.11
2022-09-09T01:17:25.613Z,15.20
2022-09-09T01:20:07.890Z,15.20
2022-09-09T01:23:02.271Z,15.12
2022-09-09T01:26:01.952Z,15.15
2022-09-09T01:28:29.961Z,15.04
2022-09-09T01:31:05.142Z,15.09
2022-09-09T01:33:38.713Z,15.12
2022-09-09T01:36:19.006Z,15.14
2022-09-09T01:38:49.584Z,15.15
2022-09-09T01:41:18.175Z,15.15
2022-09-09T01:43:52.936Z,14.97
2022-09-09T01:46:22.928Z,14.95
2022-09-09T01:48:52.144Z,14.90
2022-09-09T01:51:19.073Z,14.91
2022-09-09T01:53:47.231Z,14.90
2022-09-09T01:56:35.887Z,14.84
2022-09-09T01:59:24.227Z,14.82
2022-09-09T02:02:20.484Z,14.74
2022-09-09T02:05:36.646Z,14.77
2022-09-09T02:08:08.895Z,14.66
2022-09-09T02:10:57.399Z,14.66
2022-09-09T02:13:37.539Z,14.68
2022-09-09T02:16:14.175Z,14.77
2022-09-09T02:18:55.960Z,14.76
2022-09-09T02:21:32.570Z,14.70
2022-09-09T02:24:05.459Z,14.74
2022-09-09T02:26:42.164Z,14.78
2022-09-09T02:29:15.865Z,14.75
2022-09-09T02:31:45.201Z,14.73
2022-09-09T02:34:21.925Z,14.75
2022-09-09T02:36:50.620Z,14.72
2022-09-09T02:39:17.362Z,14.74
2022-09-09T02:41:44.051Z,14.69
2022-09-09T02:44:17.882Z,14.78
2022-09-09T02:47:05.794Z,14.78
2022-09-09T02:49:35.611Z,14.85
2022-09-09T02:52:09.783Z,14.92
2022-09-09T02:54:40.900Z,14.92
2022-09-09T02:57:22.073Z,14.91
2022-09-09T02:59:50.991Z,14.88
2022-09-09T03:02:17.807Z,14.98
2022-09-09T03:04:51.860Z,14.96
2022-09-09T03:07:22.394Z,14.94
2022-09-09T03:09:51.045Z,14.96
2022-09-09T03:12:17.681Z,15.02
2022-09-09T03:14:46.357Z,15.06
2022-09-09T03:17:13.556Z,15.15
2022-09-09T03:19:49.145Z,15.15
2022-09-09T03:22:15.821Z,15.18
2022-09-09T03:24:44.174Z,15.19
2022-09-09T03:27:10.798Z,15.15
2022-09-09T03:29:38.863Z,15.12
2022-09-09T03:32:11.044Z,14.95
2022-09-09T03:34:41.162Z,14.99
2022-09-09T03:37:10.920Z,15.00
2022-09-09T03:39:37.816Z,14.99
2022-09-09T03:42:04.971Z,14.99
2022-09-09T03:44:32.541Z,15.03
2022-09-09T03:47:01.568Z,15.05
2022-09-09T03:49:29.709Z,15.13
2022-09-09T03:51:58.115Z,15.14
2022-09-09T03:54:25.958Z,15.17
2022-09-09T03:56:52.718Z,15.18
2022-09-09T03:59:21.570Z,15.13
2022-09-09T04:01:48.435Z,15.05
2022-09-09T04:04:15.029Z,15.05
2022-09-09T04:06:41.789Z,14.94
2022-09-09T04:09:08.414Z,14.96
2022-09-09T04:11:35.281Z,14.93
2022-09-09T04:14:02.165Z,14.95
2022-09-09T04:16:30.431Z,14.94
2022-09-09T04:18:57.107Z,14.95
2022-09-09T04:21:24.184Z,14.95
2022-09-09T04:23:50.942Z,14.97
2022-09-09T04:26:19.010Z,14.94
2022-09-09T04:28:45.919Z,14.89
2022-09-09T04:31:21.182Z,14.91
2022-09-09T04:33:49.358Z,14.98
2022-09-09T04:36:19.185Z,14.95
2022-09-09T04:38:47.008Z,14.95
2022-09-09T04:41:14.707Z,14.96
2022-09-09T04:43:44.582Z,15.02
2022-09-09T04:46:12.517Z,15.02
2022-09-09T04:48:39.118Z,15.08
2022-09-09T04:51:11.917Z,15.05
2022-09-09T04:53:39.069Z,15.01
2022-09-09T04:56:14.493Z,14.94
2022-09-09T04:58:45.397Z,14.89
2022-09-09T05:01:19.201Z,14.97
2022-09-09T05:03:47.353Z,14.97
2022-09-09T05:06:22.306Z,14.94
2022-09-09T05:08:51.750Z,14.98
2022-09-09T05:11:28.534Z,15.06
2022-09-09T05:14:02.367Z,15.07
2022-09-09T05:16:31.781Z,15.11
2022-09-09T05:18:58.532Z,15.10
2022-09-09T05:21:27.624Z,15.08
2022-09-09T05:23:55.081Z,15.08
2022-09-09T05:26:23.211Z,15.07
2022-09-09T05:28:52.636Z,15.05
2022-09-09T05:31:19.895Z,15.11
2022-09-09T05:33:50.361Z,15.15
2022-09-09T05:36:19.844Z,15.18
2022-09-09T05:38:48.561Z,15.21
2022-09-09T05:41:16.817Z,15.26
2022-09-09T05:43:45.452Z,15.19
2022-09-09T05:46:15.203Z,15.19
2022-09-09T05:48:50.993Z,15.08
2022-09-09T05:51:22.479Z,15.10
2022-09-09T05:53:50.004Z,15.10
2022-09-09T05:56:26.152Z,15.10
2022-09-09T05:58:55.108Z,15.13
2022-09-09T06:01:25.333Z,15.17
2022-09-09T06:03:53.225Z,15.19
2022-09-09T06:06:32.460Z,15.17
2022-09-09T06:09:00.207Z,15.22
2022-09-09T06:11:32.492Z,15.24
2022-09-09T06:14:00.911Z,15.26
2022-09-09T06:16:30.646Z,15.18
2022-09-09T06:18:58.927Z,15.21
2022-09-09T06:21:28.897Z,15.38
2022-09-09T06:24:00.190Z,15.40
2022-09-09T06:26:31.470Z,15.42
2022-09-09T06:28:59.254Z,15.54
2022-09-09T06:31:30.124Z,15.53
2022-09-09T06:34:02.225Z,15.44
2022-09-09T06:36:33.029Z,15.56
2022-09-09T06:39:01.151Z,15.66
2022-09-09T06:41:30.141Z,15.72
2022-09-09T06:43:57.630Z,15.71
2022-09-09T06:46:34.060Z,15.76
2022-09-09T06:49:01.913Z,15.76
2022-09-09T06:51:33.455Z,15.78
2022-09-09T06:54:03.093Z,15.80
2022-09-09T06:56:37.388Z,15.83
2022-09-09T06:59:09.586Z,15.78
2022-09-09T07:01:40.793Z,15.87
2022-09-09T07:04:12.062Z,15.86
2022-09-09T07:06:47.059Z,15.84
2022-09-09T07:09:18.051Z,15.93
2022-09-09T07:11:50.317Z,16.05
2022-09-09T07:14:18.681Z,16.10
2022-09-09T07:16:48.623Z,16.17
2022-09-09T07:19:17.607Z,16.20
2022-09-09T07:21:46.090Z,16.15
2022-09-09T07:24:15.287Z,16.14
2022-09-09T07:26:43.217Z,16.07
2022-09-09T07:29:09.874Z,16.03
2022-09-09T07:31:38.845Z,16.03
2022-09-09T07:34:09.645Z,16.04
2022-09-09T07:36:41.463Z,16.11
2022-09-09T07:39:14.504Z,16.03
2022-09-09T07:41:50.086Z,16.01
2022-09-09T07:44:25.800Z,16.02
2022-09-09T07:47:08.995Z,16.08
2022-09-09T07:49:40.050Z,16.14
2022-09-09T07:52:08.536Z,16.12
2022-09-09T07:54:36.452Z,16.13
2022-09-09T07:57:05.483Z,16.16
2022-09-09T07:59:35.066Z,16.14
2022-09-09T08:02:02.964Z,16.16
2022-09-09T08:04:32.431Z,16.16
2022-09-09T08:07:02.019Z,16.13
2022-09-09T08:09:30.537Z,16.12
2022-09-09T08:12:34.911Z,16.13
2022-09-09T08:15:03.764Z,16.22
2022-09-09T08:17:33.870Z,16.29
2022-09-09T08:20:06.070Z,16.34
2022-09-09T08:22:33.597Z,16.41
2022-09-09T08:25:00.298Z,16.47
2022-09-09T08:27:27.035Z,16.71
2022-09-09T08:29:54.875Z,16.87
2022-09-09T08:32:21.639Z,16.93
2022-09-09T08:34:54.516Z,17.04
2022-09-09T08:37:23.154Z,17.11
2022-09-09T08:39:54.022Z,17.20
2022-09-09T08:42:36.555Z,17.33
2022-09-09T08:45:18.382Z,17.42
2022-09-09T08:47:48.163Z,17.47
2022-09-09T08:50:28.213Z,17.51
2022-09-09T08:53:09.303Z,17.49
2022-09-09T08:55:42.889Z,17.61
2022-09-09T08:58:17.084Z,17.73
2022-09-09T09:01:17.381Z,17.79
2022-09-09T09:04:22.378Z,17.76
2022-09-09T09:07:10.458Z,17.78
2022-09-09T09:09:42.073Z,17.88
2022-09-09T09:12:18.831Z,17.91
2022-09-09T09:14:48.460Z,18.14
2022-09-09T09:17:26.393Z,18.35
2022-09-09T09:19:54.884Z,18.59
2022-09-09T09:22:48.840Z,18.77
2022-09-09T09:25:18.956Z,18.92
2022-09-09T09:28:06.116Z,19.01
2022-09-09T09:30:40.849Z,19.21
2022-09-09T09:33:19.119Z,19.37
2022-09-09T09:35:46.784Z,19.29
2022-09-09T09:41:10.747Z,19.34
2022-09-09T09:43:40.977Z,19.36
2022-09-09T09:46:26.763Z,19.21
2022-09-09T09:49:03.086Z,19.25
2022-09-09T09:51:33.263Z,19.28
2022-09-09T09:54:14.933Z,19.26
2022-09-09T09:56:44.518Z,19.21
2022-09-09T09:59:39.311Z,19.22
2022-09-09T10:02:17.887Z,19.27
2022-09-09T10:04:47.568Z,19.26
2022-09-09T10:07:20.612Z,19.39
2022-09-09T10:09:54.361Z,19.49
2022-09-09T10:12:35.618Z,19.55
2022-09-09T10:15:30.139Z,19.16
2022-09-09T10:18:32.521Z,19.25
2022-09-09T10:21:01.859Z,19.42
2022-09-09T10:23:28.345Z,19.54
2022-09-09T10:26:17.253Z,19.65
2022-09-09T10:29:06.637Z,19.62
2022-09-09T10:31:42.885Z,19.75
2022-09-09T10:34:32.480Z,19.73
2022-09-09T10:37:03.747Z,19.88
2022-09-09T10:39:43.193Z,20.12
2022-09-09T10:42:20.311Z,20.17
2022-09-09T10:45:38.350Z,20.36
2022-09-09T10:48:21.790Z,20.41
2022-09-09T10:51:12.029Z,20.32
2022-09-09T10:53:52.929Z,20.07
2022-09-09T10:56:22.593Z,20.05
2022-09-09T10:59:02.136Z,20.02
2022-09-09T11:01:41.495Z,19.81
2022-09-09T11:04:23.136Z,20.26
2022-09-09T11:06:53.620Z,19.60
2022-09-09T11:09:24.313Z,18.91
2022-09-09T11:11:55.414Z,19.35
2022-09-09T11:14:28.685Z,19.54
2022-09-09T11:17:03.093Z,19.78
2022-09-09T11:19:36.809Z,19.80
2022-09-09T11:22:16.871Z,19.66
2022-09-09T11:25:11.307Z,19.38
2022-09-09T11:27:55.243Z,19.69
2022-09-09T11:30:53.841Z,19.63
2022-09-09T11:33:38.604Z,19.38
2022-09-09T11:36:35.686Z,18.66
2022-09-09T11:39:08.051Z,19.08
2022-09-09T11:41:38.147Z,19.34
2022-09-09T11:44:21.510Z,19.87
2022-09-09T11:46:53.079Z,20.09
2022-09-09T11:49:29.736Z,19.16
2022-09-09T11:51:56.314Z,19.21
2022-09-09T11:54:32.347Z,19.59
2022-09-09T11:56:59.505Z,19.78
2022-09-09T11:59:33.832Z,19.54
2022-09-09T12:02:00.410Z,18.96
2022-09-09T12:04:26.997Z,18.91
2022-09-09T12:06:55.613Z,18.93
2022-09-09T12:09:33.479Z,18.60
2022-09-09T12:12:24.997Z,19.12
2022-09-09T12:15:18.812Z,19.11
2022-09-09T12:17:54.457Z,19.27
2022-09-09T12:20:36.996Z,19.13
2022-09-09T12:23:43.589Z,19.40
2022-09-09T12:26:41.027Z,19.60
2022-09-09T12:29:20.072Z,19.97
2022-09-09T12:32:03.092Z,20.03
2022-09-09T12:34:45.790Z,19.97
2022-09-09T12:37:46.206Z,19.66
2022-09-09T12:40:27.868Z,19.74
2022-09-09T12:42:56.173Z,20.17
2022-09-09T12:45:26.300Z,20.28
2022-09-09T12:48:01.502Z,19.85
2022-09-09T12:50:44.581Z,20.10
2022-09-09T12:53:26.520Z,20.59
2022-09-09T12:55:57.884Z,21.00
2022-09-09T12:58:26.103Z,20.99
2022-09-09T13:00:57.111Z,20.89
2022-09-09T13:03:24.350Z,21.31
2022-09-09T13:05:51.539Z,21.56
2022-09-09T13:08:21.520Z,21.78
2022-09-09T13:11:00.141Z,21.66
2022-09-09T13:13:36.070Z,21.51
2022-09-09T13:16:06.581Z,21.57
2022-09-09T13:18:36.979Z,21.61
2022-09-09T13:21:04.123Z,22.10
2022-09-09T13:23:33.167Z,22.24
2022-09-09T13:26:02.637Z,22.37
2022-09-09T13:28:33.839Z,22.25
2022-09-09T13:31:04.316Z,22.28
2022-09-09T13:33:38.143Z,22.42
2022-09-09T13:36:10.113Z,22.57
2022-09-09T13:38:59.476Z,22.67
2022-09-09T13:41:45.262Z,22.69
2022-09-09T13:44:28.333Z,22.74
2022-09-09T13:47:24.280Z,23.03
2022-09-09T13:49:50.956Z,23.16
2022-09-09T13:52:19.866Z,22.98
2022-09-09T13:54:52.051Z,22.68
2022-09-09T13:57:26.741Z,22.45
2022-09-09T14:00:06.833Z,22.37
2022-09-09T14:02:34.857Z,22.39
2022-09-09T14:05:01.699Z,22.20
2022-09-09T14:07:30.698Z,22.18
2022-09-09T14:09:57.472Z,22.18
2022-09-09T14:12:24.970Z,22.39
2022-09-09T14:14:51.947Z,22.21
2022-09-09T14:17:18.509Z,21.96
2022-09-09T14:19:48.354Z,22.27
2022-09-09T14:22:15.513Z,22.22
2022-09-09T14:24:42.177Z,22.31
2022-09-09T14:27:08.845Z,22.11
2022-09-09T14:29:35.389Z,21.92
2022-09-09T14:32:04.361Z,21.87
2022-09-09T14:34:33.342Z,21.73
2022-09-09T14:37:00.139Z,21.98
2022-09-09T14:39:27.229Z,22.05
2022-09-09T14:41:53.876Z,22.03
2022-09-09T14:44:20.612Z,21.79
2022-09-09T14:46:47.262Z,21.29
2022-09-09T14:49:13.883Z,21.01
2022-09-09T14:51:40.565Z,20.98
2022-09-09T14:54:07.399Z,20.96
2022-09-09T14:56:37.956Z,20.96
2022-09-09T14:59:04.975Z,21.01
2022-09-09T15:01:33.128Z,20.97
2022-09-09T15:04:01.805Z,20.98
2022-09-09T15:06:30.974Z,21.13
2022-09-09T15:09:00.386Z,21.05
2022-09-09T15:11:32.969Z,20.99
2022-09-09T15:13:59.703Z,21.03
2022-09-09T15:16:28.976Z,21.12
2022-09-09T15:18:58.132Z,21.12
2022-09-09T15:21:27.481Z,21.03
2022-09-09T15:23:54.606Z,20.87
2022-09-09T15:26:21.856Z,20.76
2022-09-09T15:28:50.722Z,20.73
2022-09-09T15:31:23.178Z,20.54
2022-09-09T15:34:04.342Z,20.54
2022-09-09T15:36:37.123Z,20.57
2022-09-09T15:39:06.266Z,20.57
2022-09-09T15:41:33.421Z,20.54
2022-09-09T15:44:03.893Z,20.44
2022-09-09T15:46:33.275Z,20.43
2022-09-09T15:49:11.781Z,20.49
2022-09-09T15:51:44.554Z,20.54
2022-09-09T15:54:14.392Z,20.48
2022-09-09T15:56:41.812Z,20.38
2022-09-09T15:59:08.453Z,20.30
2022-09-09T16:01:36.473Z,20.24
2022-09-09T16:04:03.621Z,20.17
2022-09-09T16:06:30.725Z,20.18
2022-09-09T16:08:59.133Z,20.18
2022-09-09T16:11:38.216Z,20.18
2022-09-09T16:14:06.317Z,20.19
2022-09-09T16:16:33.399Z,20.06
2022-09-09T16:19:06.751Z,19.98
2022-09-09T16:21:36.221Z,19.93
2022-09-09T16:24:03.929Z,19.88
2022-09-09T16:26:33.215Z,19.87
2022-09-09T16:29:01.071Z,19.87
2022-09-09T16:31:29.357Z,19.85
2022-09-09T16:33:56.763Z,19.86
2022-09-09T16:36:28.463Z,19.87
2022-09-09T16:39:00.605Z,19.85
2022-09-09T16:41:29.768Z,19.75
2022-09-09T16:44:03.320Z,19.70
2022-09-09T16:46:31.685Z,19.62
2022-09-09T16:48:59.485Z,19.56
2022-09-09T16:51:35.831Z,19.68
2022-09-09T16:54:05.008Z,19.63
2022-09-09T16:56:34.952Z,19.51
2022-09-09T16:59:03.578Z,19.36
2022-09-09T17:01:33.863Z,19.31
2022-09-09T17:04:03.469Z,19.18
2022-09-09T17:06:31.713Z,19.20
2022-09-09T17:09:00.598Z,19.15
2022-09-09T17:11:27.121Z,19.05
2022-09-09T17:13:55.559Z,19.03
2022-09-09T17:16:24.583Z,18.98
2022-09-09T17:18:52.744Z,18.98
2022-09-09T17:21:21.959Z,18.94
2022-09-09T17:23:51.365Z,18.89
2022-09-09T17:26:20.577Z,18.89
2022-09-09T17:28:47.267Z,18.87
2022-09-09T17:31:16.736Z,18.82
2022-09-09T17:33:46.991Z,18.72
2022-09-09T17:36:16.722Z,18.71
2022-09-09T17:38:43.654Z,18.70
2022-09-09T17:41:17.289Z,18.68
2022-09-09T17:43:44.382Z,18.57
2022-09-09T17:46:22.639Z,18.50
2022-09-09T17:48:51.409Z,18.49
2022-09-09T17:51:28.389Z,18.45
2022-09-09T17:53:56.977Z,18.41
2022-09-09T17:56:29.188Z,18.38
2022-09-09T17:58:55.780Z,18.37
2022-09-09T18:01:27.808Z,18.30
2022-09-09T18:03:57.381Z,18.25
2022-09-09T18:06:28.049Z,18.24
2022-09-09T18:09:01.368Z,18.24
2022-09-09T18:11:38.623Z,18.27
2022-09-09T18:14:06.007Z,18.28
2022-09-09T18:16:35.992Z,18.20
2022-09-09T18:19:05.627Z,18.15
2022-09-09T18:21:34.145Z,18.12
2022-09-09T18:24:07.589Z,18.10
2022-09-09T18:26:35.459Z,18.01
2022-09-09T18:29:06.678Z,17.97
2022-09-09T18:31:34.319Z,17.98
2022-09-09T18:34:03.831Z,18.01
2022-09-09T18:36:35.110Z,18.01
2022-09-09T18:39:03.691Z,17.95
2022-09-09T18:41:32.716Z,17.90
2022-09-09T18:44:02.440Z,17.85
2022-09-09T18:46:32.767Z,17.87
2022-09-09T18:49:02.139Z,17.85
2022-09-09T18:51:29.909Z,17.90
2022-09-09T18:54:02.937Z,17.84
2022-09-09T18:56:30.538Z,17.80
2022-09-09T18:58:59.367Z,17.77
2022-09-09T19:01:27.439Z,17.71
2022-09-09T19:03:54.466Z,17.69
2022-09-09T19:06:26.480Z,17.65
2022-09-09T19:08:57.486Z,17.59
2022-09-09T19:11:27.920Z,17.58
2022-09-09T19:14:00.248Z,17.55
2022-09-09T19:16:29.405Z,17.48
2022-09-09T19:18:58.736Z,17.46
2022-09-09T19:21:31.011Z,17.42
2022-09-09T19:24:06.627Z,17.40
2022-09-09T19:26:40.439Z,17.37
2022-09-09T19:29:10.079Z,17.33
2022-09-09T19:31:37.710Z,17.37
2022-09-09T19:34:04.872Z,17.37
2022-09-09T19:36:31.563Z,17.29
2022-09-09T19:38:58.661Z,17.27
2022-09-09T19:41:27.430Z,17.22
2022-09-09T19:44:01.710Z,17.19
2022-09-09T19:46:30.361Z,17.13
2022-09-09T19:48:58.082Z,17.13
2022-09-09T19:51:26.796Z,17.13
2022-09-09T19:53:58.211Z,17.19
2022-09-09T19:56:27.616Z,17.20
2022-09-09T19:58:54.610Z,17.16
2022-09-09T20:01:22.491Z,17.11
2022-09-09T20:03:52.227Z,17.07
2022-09-09T20:06:21.723Z,17.15
2022-09-09T20:08:48.549Z,17.15
2022-09-09T20:11:16.128Z,17.16
2022-09-09T20:13:43.588Z,17.18
2022-09-09T20:16:16.942Z,17.10
2022-09-09T20:18:46.081Z,17.05
2022-09-09T20:21:16.049Z,17.02
2022-09-09T20:23:46.519Z,16.99
2022-09-09T20:26:17.488Z,16.97
2022-09-09T20:28:45.121Z,16.96
2022-09-09T20:31:20.381Z,16.92
2022-09-09T20:33:48.146Z,16.93
2022-09-09T20:36:24.805Z,16.90
2022-09-09T20:38:59.688Z,16.85
2022-09-09T20:41:29.441Z,16.75
2022-09-09T20:44:01.665Z,16.68
2022-09-09T20:46:33.081Z,16.60
2022-09-09T20:49:03.092Z,16.59
2022-09-09T20:51:33.157Z,16.68
2022-09-09T20:54:06.675Z,16.64
2022-09-09T20:56:37.592Z,16.69
2022-09-09T20:59:05.638Z,16.68
2022-09-09T21:01:32.660Z,16.59
2022-09-09T21:04:06.661Z,16.56
2022-09-09T21:06:33.244Z,16.57
2022-09-09T21:08:59.822Z,16.58
2022-09-09T21:11:26.643Z,16.56
2022-09-09T21:13:53.342Z,16.57
2022-09-09T21:16:21.113Z,16.63
2022-09-09T21:18:50.670Z,16.66
2022-09-09T21:21:19.216Z,16.67
2022-09-09T21:23:45.861Z,16.62
2022-09-09T21:26:12.951Z,16.62
2022-09-09T21:28:40.064Z,16.60
2022-09-09T21:31:07.220Z,16.59
2022-09-09T21:33:34.598Z,16.54
2022-09-09T21:36:06.488Z,16.59
2022-09-09T21:38:33.405Z,16.63
2022-09-09T21:41:05.100Z,16.62
2022-09-09T21:43:32.368Z,16.63
2022-09-09T21:45:59.448Z,16.61
2022-09-09T21:48:26.293Z,16.58
2022-09-09T21:50:53.309Z,16.53
2022-09-09T21:53:20.406Z,16.53
2022-09-09T21:55:51.946Z,16.58
2022-09-09T21:58:18.512Z,16.57
2022-09-09T22:00:46.566Z,16.57
2022-09-09T22:03:14.904Z,16.52
2022-09-09T22:05:43.106Z,16.52
2022-09-09T22:08:11.964Z,16.54
2022-09-09T22:10:40.637Z,16.48
2022-09-09T22:13:07.620Z,16.45
2022-09-09T22:15:35.050Z,16.47
2022-09-09T22:18:03.526Z,16.47
2022-09-09T22:20:33.348Z,16.49
2022-09-09T22:23:00.939Z,16.51
2022-09-09T22:25:28.598Z,16.56
2022-09-09T22:27:56.254Z,16.57
2022-09-09T22:30:22.980Z,16.59
2022-09-09T22:32:53.897Z,16.58
2022-09-09T22:35:20.464Z,16.60
2022-09-09T22:37:47.333Z,16.61
2022-09-09T22:40:14.443Z,16.56
2022-09-09T22:42:41.760Z,16.60
2022-09-09T22:45:13.187Z,16.62
2022-09-09T22:47:42.695Z,16.61
2022-09-09T22:50:09.967Z,16.60
2022-09-09T22:52:37.017Z,16.60
2022-09-09T22:55:04.018Z,16.57
2022-09-09T22:57:31.103Z,16.61
2022-09-09T22:59:57.650Z,16.59
2022-09-09T23:02:26.436Z,16.58
2022-09-09T23:04:53.045Z,16.52
2022-09-09T23:07:20.515Z,16.42
2022-09-09T23:09:47.749Z,16.43
2022-09-09T23:12:14.816Z,16.35
2022-09-09T23:14:41.487Z,16.35
2022-09-09T23:17:08.741Z,16.35
2022-09-09T23:19:37.224Z,16.28
2022-09-09T23:22:04.126Z,16.21
2022-09-09T23:24:30.674Z,16.24
2022-09-09T23:26:57.228Z,16.21
2022-09-09T23:29:23.855Z,16.18
2022-09-09T23:31:50.391Z,16.11
2022-09-09T23:34:16.937Z,16.09
2022-09-09T23:36:43.622Z,16.17
2022-09-09T23:39:11.793Z,16.23
2022-09-09T23:41:40.244Z,16.26
2022-09-09T23:44:07.619Z,16.32
2022-09-09T23:46:35.208Z,16.33
2022-09-09T23:49:02.643Z,16.36
2022-09-09T23:51:30.635Z,16.42
2022-09-09T23:54:00.514Z,16.44
2022-09-09T23:56:39.779Z,16.45
2022-09-09T23:59:07.476Z,16.47
